METAR Data
IDs: Format: Raw Decoded Include TAF

Data at: 2026 UTC 19 May 2019

KDRT 191953Z AUTO 14011KT 10SM FEW039 FEW080 32/22 A2981 RMK AO2 SLP077 T03220222
KDRT 191853Z AUTO 11008KT 9SM SCT028 SCT085 31/23 A2983 RMK AO2 SLP085 T03110228
KDRT 191801Z AUTO 00000KT 9SM SCT019 29/23 A2984 RMK AO2 T02940233
KDRT 191753Z AUTO VRB03KT 9SM BKN019 29/23 A2985 RMK AO2 SLP091 T02940233 10294 20206 58004
KDRT 191711Z AUTO 09006KT 10SM BKN016 28/22 A2986 RMK AO2 T02780222
KDRT 191653Z AUTO 00000KT 10SM SCT016 27/21 A2987 RMK AO2 SLP097 T02670211
KDRT 191646Z AUTO VRB03KT 10SM SCT016 27/21 A2987 RMK AO2 T02670206
KDRT 191553Z AUTO 20003KT 10SM OVC011 24/19 A2988 RMK AO2 SLP103 T02440189
KDRT 191542Z AUTO 20003KT 10SM OVC013 24/19 A2988 RMK AO2 T02440189
KDRT 191511Z AUTO 21004KT 10SM OVC016 24/19 A2987 RMK AO2 T02390189
KDRT 191453Z AUTO 18005KT 10SM OVC012 23/19 A2986 RMK AO2 SLP096 T02330194 53019
KDRT 191441Z AUTO 00000KT 10SM BKN012 OVC095 23/19 A2985 RMK AO2 T02330194
KDRT 191353Z AUTO 33004KT 10SM FEW095 SCT110 21/18 A2984 RMK AO2 SLP088 T02110183
KDRT 191253Z AUTO 32003KT 10SM FEW080 21/18 A2982 RMK AO2 SLP081 T02110183
KDRT 191153Z AUTO 00000KT 10SM CLR 21/18 A2980 RMK AO2 LTG DSNT E-SW RAE1055 TSE02 SLP075 P0000 60116 70116 T02110183 10261 20211 50010
KDRT 191107Z AUTO 06006KT 10SM FEW070 BKN110 22/19 A2980 RMK AO2 LTG DSNT SE-SW RAE1055 TSE02 PRESFR P0000 T02170194
KDRT 191053Z AUTO 07010G16KT 10SM -TSRA SCT021 BKN070 OVC100 22/19 A2982 RMK AO2 LTG DSNT ALQDS SLP080 P0080 T02170194
KDRT 191051Z AUTO 07011G16KT 9SM -TSRA SCT021 BKN070 OVC100 21/19 A2982 RMK AO2 LTG DSNT ALQDS P0080
KDRT 191044Z AUTO 04008KT 2 1/2SM -TSRA BR SCT019 BKN031 OVC100 21/19 A2983 RMK AO2 LTG DSNT ALQDS P0080 T02110194
KDRT 191038Z AUTO 05009KT 1SM +TSRA BR BKN016 BKN031 OVC075 21/19 A2983 RMK AO2 LTG DSNT ALQDS P0078 T02110194
KDRT 191030Z AUTO 06010G20KT 3/4SM +TSRA BR BKN014 BKN033 OVC070 21/19 A2984 RMK AO2 LTG DSNT ALQDS P0050 T02110194
KDRT 191022Z AUTO 34016G20KT 1 3/4SM +TSRA BR FEW020 BKN065 OVC110 22/20 A2984 RMK AO2 LTG DSNT NE-SE PRESRR P0013 T02170200
KDRT 191008Z AUTO 03007KT 10SM -TSRA SCT014 BKN075 OVC110 22/19 A2980 RMK AO2 LTG DSNT ALQDS P0000 T02220194
KDRT 190953Z AUTO 09007KT 8SM -TSRA FEW005 BKN013 OVC031 22/20 A2977 RMK AO2 LTG DSNT ALQDS RAB05 SLP064 P0036 T02220200
KDRT 190944Z AUTO 11010KT 3SM -TSRA BR SCT005 BKN011 OVC029 23/21 A2977 RMK AO2 LTG DSNT ALQDS RAB05 P0036 T02330211
KDRT 190928Z AUTO 15005KT 1SM +TSRA BR SCT005 BKN010 OVC023 26/24 A2977 RMK AO2 LTG DSNT ALQDS RAB05 P0018 T02560239
KDRT 190919Z AUTO 16004KT 2 1/2SM TSRA BR SCT005 SCT010 OVC014 25/23 A2977 RMK AO2 LTG DSNT ALQDS RAB05 P0001 T02500233
KDRT 190911Z AUTO 16003KT 4SM -TSRA BR BKN014 BKN022 OVC037 26/23 A2976 RMK AO2 LTG DSNT ALQDS RAB05 P0000 T02560233
KDRT 190903Z AUTO 10004KT 4SM TS BR SCT014 BKN025 OVC037 25/23 A2975 RMK AO2 LTG DSNT E AND SE AND W T02500233
KDRT 190853Z AUTO 07005KT 4SM TS BR SCT025 BKN037 25/23 A2974 RMK AO2 LTG DSNT E AND SE AND W TSB47 SLP053 T02500233 58002
KDRT 190847Z AUTO 08003KT 4SM TS BR SCT030 BKN036 25/23 A2975 RMK AO2 LTG DSNT SE AND W TSB47
KDRT 190753Z AUTO 07007KT 5SM BR SCT070 25/23 A2976 RMK AO2 SLP059 T02500228
KDRT 190653Z AUTO 07006KT 8SM CLR 25/21 A2976 RMK AO2 SLP058 T02500211
KDRT 190553Z AUTO 07009KT 10SM CLR 26/20 A2975 RMK AO2 SLP055 T02610200 10350 20256 403720244 50024
KDRT 190453Z AUTO 09003KT 10SM CLR 26/21 A2975 RMK AO2 SLP056 T02610206
KDRT 190353Z AUTO 07005KT 10SM CLR 27/21 A2972 RMK AO2 SLP046 T02670211
KDRT 190253Z AUTO 08009KT 10SM CLR 28/20 A2968 RMK AO2 SLP032 T02830200 53026
KDRT 190153Z AUTO 12003KT 10SM CLR 30/18 A2963 RMK AO2 SLP017 T03000178
KDRT 190053Z AUTO 14007KT 10SM CLR 33/16 A2961 RMK AO2 SLP008 T03280161
KDRT 182353Z AUTO 11008KT 10SM CLR 35/13 A2960 RMK AO2 SLP004 T03500133 10372 20322 56005
KDRT 182253Z AUTO VRB05KT 10SM CLR 36/12 A2960 RMK AO2 SLP004 T03610122
KDRT 182153Z AUTO 35005KT 10SM CLR 37/13 A2960 RMK AO2 SLP005 T03670133
KDRT 182053Z AUTO 01008KT 10SM CLR 36/16 A2961 RMK AO2 SLP009 T03610156 56020
KDRT 181953Z AUTO VRB04KT 10SM CLR 35/18 A2963 RMK AO2 SLP015 T03500178
KDRT 181853Z AUTO VRB04KT 10SM CLR 34/18 A2965 RMK AO2 SLP022 T03390183
KDRT 181753Z AUTO 01003KT 10SM FEW044 33/20 A2967 RMK AO2 SLP030 T03280200 10328 20244 58006
KDRT 181653Z AUTO 19004KT 9SM FEW041 31/22 A2968 RMK AO2 SLP033 T03110222
KDRT 181553Z AUTO 18008KT 6SM HZ FEW019 BKN033 BKN050 29/23 A2969 RMK AO2 SLP037 T02890233
KDRT 181549Z AUTO 15008KT 6SM HZ SCT019 BKN033 29/23 A2969 RMK AO2
KDRT 181453Z AUTO 16012KT 5SM HZ OVC015 27/23 A2969 RMK AO2 SLP037 T02720233 51012
KDRT 181446Z AUTO 14009KT 5SM HZ OVC015 27/23 A2969 RMK AO2 T02720233
KDRT 181353Z AUTO 14011KT 5SM HZ OVC010 26/23 A2968 RMK AO2 SLP033 T02560228
KDRT 181253Z AUTO 13009KT 4SM BR OVC011 24/23 A2967 RMK AO2 SLP030 T02440228
KDRT 181153Z AUTO 13011KT 6SM BR OVC011 24/23 A2966 RMK AO2 RAB21E31 CIG 008V014 SLP024 P0000 60002 70002 T02440228 10272 20244 53004
KDRT 181111Z AUTO 13011KT 6SM BR BKN011 OVC017 24/23 A2966 RMK AO2 T02440228
KDRT 181053Z AUTO 13011G19KT 6SM BR OVC015 24/22 A2965 RMK AO2 SLP023 T02440222
KDRT 181007Z AUTO 14010KT 5SM BR SCT008 OVC021 24/23 A2965 RMK AO2 T02440228
KDRT 181000Z AUTO 13010KT 5SM BR BKN009 BKN013 OVC024 24/23 A2965 RMK AO2 CIG 005V010 T02440233
KDRT 180953Z AUTO 13011KT 5SM BR SCT009 BKN015 OVC024 24/23 A2964 RMK AO2 RAE17 SLP019 P0001 T02440228
KDRT 180936Z AUTO 13014KT 5SM BR FEW009 BKN014 OVC023 25/23 A2964 RMK AO2 RAE17 P0001 T02500228
KDRT 180853Z AUTO 11011KT 4SM RA BR SCT019 BKN025 OVC036 25/23 A2964 RMK AO2 RAB24 SLP019 P0001 60001 T02500233 56007